Terminal Aerodrome Forecast
Issued by NWS Albany, NY

Home | Current Version | Previous Version | Text Only | Print | Product List | Glossary On
Versions: 1 2 3 4 5 6 7 8 9 10 11 12 13 14 15 16 17 18 19 20 21 22 23 24
000
FTUS41 KALY 181100 RRA
TAFGFL
TAF
KGFL 181154Z 1812/1912 VRB03KT P6SM BKN090
     FM181400 34007KT P6SM SCT050 BKN080
     FM182000 03011G17KT P6SM BKN035
     FM190200 02007KT P6SM SCT040
     FM190600 01003KT P6SM SKC=

USA.gov is the U.S. government's official web portal to all federal, state and local government web resources and services.